sensor_id;sensor_type;location;lat;lon;timestamp;P1;durP1;ratioP1;P2;durP2;ratioP2
68765;SDS011;55756;45.582;11.484;2022-11-15T00:01:53;32.17;;;21.67;;
68765;SDS011;55756;45.582;11.484;2022-11-15T00:04:37;32.63;;;21.98;;
68765;SDS011;55756;45.582;11.484;2022-11-15T00:07:21;33.80;;;22.30;;
68765;SDS011;55756;45.582;11.484;2022-11-15T00:10:06;33.30;;;22.08;;
68765;SDS011;55756;45.582;11.484;2022-11-15T00:12:50;32.17;;;21.85;;
68765;SDS011;55756;45.582;11.484;2022-11-15T00:15:35;35.90;;;24.27;;
68765;SDS011;55756;45.582;11.484;2022-11-15T00:18:20;34.10;;;22.02;;
68765;SDS011;55756;45.582;11.484;2022-11-15T00:21:06;31.55;;;21.67;;
68765;SDS011;55756;45.582;11.484;2022-11-15T00:23:52;31.80;;;22.45;;
68765;SDS011;55756;45.582;11.484;2022-11-15T00:26:37;32.90;;;22.45;;
68765;SDS011;55756;45.582;11.484;2022-11-15T00:29:21;30.67;;;21.02;;
68765;SDS011;55756;45.582;11.484;2022-11-15T00:32:06;31.55;;;19.92;;
68765;SDS011;55756;45.582;11.484;2022-11-15T00:34:50;29.50;;;19.27;;
68765;SDS011;55756;45.582;11.484;2022-11-15T00:37:34;30.02;;;19.95;;
68765;SDS011;55756;45.582;11.484;2022-11-15T00:40:18;28.17;;;19.95;;
68765;SDS011;55756;45.582;11.484;2022-11-15T00:43:02;30.48;;;20.70;;
68765;SDS011;55756;45.582;11.484;2022-11-15T00:45:46;18.77;;;13.93;;
68765;SDS011;55756;45.582;11.484;2022-11-15T00:48:30;16.25;;;12.10;;
68765;SDS011;55756;45.582;11.484;2022-11-15T00:51:15;16.33;;;12.15;;
68765;SDS011;55756;45.582;11.484;2022-11-15T00:54:00;18.80;;;13.27;;
68765;SDS011;55756;45.582;11.484;2022-11-15T00:56:44;20.92;;;14.05;;
68765;SDS011;55756;45.582;11.484;2022-11-15T00:59:28;25.42;;;18.00;;
68765;SDS011;55756;45.582;11.484;2022-11-15T01:02:12;27.33;;;18.73;;
68765;SDS011;55756;45.582;11.484;2022-11-15T01:04:57;27.65;;;18.27;;
68765;SDS011;55756;45.582;11.484;2022-11-15T01:07:42;27.33;;;18.30;;
68765;SDS011;55756;45.582;11.484;2022-11-15T01:10:26;29.88;;;18.75;;
68765;SDS011;55756;45.582;11.484;2022-11-15T01:13:11;25.52;;;17.85;;
68765;SDS011;55756;45.582;11.484;2022-11-15T01:15:55;25.63;;;17.20;;
68765;SDS011;55756;45.582;11.484;2022-11-15T01:18:39;23.08;;;16.58;;
68765;SDS011;55756;45.582;11.484;2022-11-15T01:21:23;23.52;;;16.55;;
68765;SDS011;55756;45.582;11.484;2022-11-15T01:24:10;25.50;;;17.80;;
68765;SDS011;55756;45.582;11.484;2022-11-15T01:26:56;26.52;;;18.33;;
68765;SDS011;55756;45.582;11.484;2022-11-15T01:29:40;26.70;;;18.85;;
68765;SDS011;55756;45.582;11.484;2022-11-15T01:32:25;26.83;;;17.98;;
68765;SDS011;55756;45.582;11.484;2022-11-15T01:35:09;29.40;;;19.35;;
68765;SDS011;55756;45.582;11.484;2022-11-15T01:37:53;28.13;;;19.73;;
68765;SDS011;55756;45.582;11.484;2022-11-15T01:40:38;30.45;;;21.10;;
68765;SDS011;55756;45.582;11.484;2022-11-15T01:43:22;29.38;;;20.42;;
68765;SDS011;55756;45.582;11.484;2022-11-15T01:46:28;29.55;;;20.90;;
68765;SDS011;55756;45.582;11.484;2022-11-15T01:49:18;31.60;;;20.90;;
68765;SDS011;55756;45.582;11.484;2022-11-15T01:52:05;30.92;;;20.83;;
68765;SDS011;55756;45.582;11.484;2022-11-15T01:58:03;31.33;;;19.63;;
68765;SDS011;55756;45.582;11.484;2022-11-15T02:00:49;28.95;;;20.75;;
68765;SDS011;55756;45.582;11.484;2022-11-15T02:03:43;29.83;;;20.52;;
68765;SDS011;55756;45.582;11.484;2022-11-15T02:06:38;32.70;;;22.10;;
68765;SDS011;55756;45.582;11.484;2022-11-15T02:09:23;30.67;;;21.45;;
68765;SDS011;55756;45.582;11.484;2022-11-15T02:12:07;31.60;;;21.77;;
68765;SDS011;55756;45.582;11.484;2022-11-15T02:14:54;29.90;;;22.40;;
68765;SDS011;55756;45.582;11.484;2022-11-15T02:17:43;33.67;;;22.88;;
68765;SDS011;55756;45.582;11.484;2022-11-15T02:26:51;34.28;;;22.92;;
68765;SDS011;55756;45.582;11.484;2022-11-15T02:33:51;30.10;;;22.08;;
68765;SDS011;55756;45.582;11.484;2022-11-15T02:36:44;34.55;;;22.17;;
68765;SDS011;55756;45.582;11.484;2022-11-15T02:39:41;33.58;;;21.67;;
68765;SDS011;55756;45.582;11.484;2022-11-15T02:43:24;30.90;;;21.52;;
68765;SDS011;55756;45.582;11.484;2022-11-15T02:46:15;29.63;;;20.55;;
68765;SDS011;55756;45.582;11.484;2022-11-15T02:49:06;30.67;;;21.45;;
68765;SDS011;55756;45.582;11.484;2022-11-15T02:51:50;32.28;;;21.15;;
68765;SDS011;55756;45.582;11.484;2022-11-15T02:54:36;30.92;;;21.65;;
68765;SDS011;55756;45.582;11.484;2022-11-15T02:57:27;30.58;;;20.95;;
68765;SDS011;55756;45.582;11.484;2022-11-15T03:00:23;31.33;;;20.30;;
68765;SDS011;55756;45.582;11.484;2022-11-15T03:06:22;29.00;;;20.55;;
68765;SDS011;55756;45.582;11.484;2022-11-15T03:09:33;27.42;;;19.90;;
68765;SDS011;55756;45.582;11.484;2022-11-15T03:12:28;27.63;;;19.13;;
68765;SDS011;55756;45.582;11.484;2022-11-15T03:15:21;29.13;;;20.05;;
68765;SDS011;55756;45.582;11.484;2022-11-15T03:18:12;30.48;;;20.10;;
68765;SDS011;55756;45.582;11.484;2022-11-15T03:21:04;29.23;;;19.55;;
68765;SDS011;55756;45.582;11.484;2022-11-15T03:23:51;29.42;;;20.13;;
68765;SDS011;55756;45.582;11.484;2022-11-15T03:26:38;30.90;;;20.50;;
68765;SDS011;55756;45.582;11.484;2022-11-15T03:29:26;33.67;;;21.05;;
68765;SDS011;55756;45.582;11.484;2022-11-15T03:32:17;36.60;;;23.30;;
68765;SDS011;55756;45.582;11.484;2022-11-15T03:35:10;40.88;;;26.05;;
68765;SDS011;55756;45.582;11.484;2022-11-15T03:38:36;41.80;;;26.45;;
68765;SDS011;55756;45.582;11.484;2022-11-15T03:41:21;56.38;;;25.42;;
68765;SDS011;55756;45.582;11.484;2022-11-15T03:44:46;60.90;;;26.10;;
68765;SDS011;55756;45.582;11.484;2022-11-15T03:47:32;49.35;;;27.15;;
68765;SDS011;55756;45.582;11.484;2022-11-15T03:50:20;58.63;;;25.38;;
68765;SDS011;55756;45.582;11.484;2022-11-15T03:53:07;149.23;;;27.42;;
68765;SDS011;55756;45.582;11.484;2022-11-15T03:55:52;118.93;;;29.10;;
68765;SDS011;55756;45.582;11.484;2022-11-15T03:58:36;318.88;;;30.73;;
68765;SDS011;55756;45.582;11.484;2022-11-15T04:01:21;354.23;;;32.55;;
68765;SDS011;55756;45.582;11.484;2022-11-15T04:04:05;279.02;;;31.95;;
68765;SDS011;55756;45.582;11.484;2022-11-15T04:06:50;491.70;;;33.60;;
68765;SDS011;55756;45.582;11.484;2022-11-15T04:09:34;328.88;;;31.48;;
68765;SDS011;55756;45.582;11.484;2022-11-15T04:12:39;55.67;;;29.80;;
68765;SDS011;55756;45.582;11.484;2022-11-15T04:15:26;64.85;;;28.75;;
68765;SDS011;55756;45.582;11.484;2022-11-15T04:18:12;87.18;;;28.20;;
68765;SDS011;55756;45.582;11.484;2022-11-15T04:20:56;89.90;;;27.25;;
68765;SDS011;55756;45.582;11.484;2022-11-15T04:24:00;32.95;;;25.25;;
68765;SDS011;55756;45.582;11.484;2022-11-15T04:26:56;35.53;;;25.20;;
68765;SDS011;55756;45.582;11.484;2022-11-15T04:29:40;228.45;;;27.02;;
68765;SDS011;55756;45.582;11.484;2022-11-15T04:32:24;85.95;;;26.42;;
68765;SDS011;55756;45.582;11.484;2022-11-15T04:35:09;91.40;;;25.55;;
68765;SDS011;55756;45.582;11.484;2022-11-15T04:37:54;107.90;;;27.00;;
68765;SDS011;55756;45.582;11.484;2022-11-15T04:40:38;218.95;;;29.50;;
68765;SDS011;55756;45.582;11.484;2022-11-15T04:43:22;90.32;;;27.73;;
68765;SDS011;55756;45.582;11.484;2022-11-15T04:46:07;42.20;;;28.00;;
68765;SDS011;55756;45.582;11.484;2022-11-15T04:48:51;37.85;;;26.20;;
68765;SDS011;55756;45.582;11.484;2022-11-15T04:51:36;87.55;;;25.20;;
68765;SDS011;55756;45.582;11.484;2022-11-15T04:54:20;30.65;;;21.73;;
68765;SDS011;55756;45.582;11.484;2022-11-15T04:57:05;31.67;;;19.40;;
68765;SDS011;55756;45.582;11.484;2022-11-15T04:59:49;29.88;;;18.98;;
68765;SDS011;55756;45.582;11.484;2022-11-15T05:02:34;28.27;;;18.38;;
68765;SDS011;55756;45.582;11.484;2022-11-15T05:05:37;27.73;;;17.27;;
68765;SDS011;55756;45.582;11.484;2022-11-15T05:08:21;77.82;;;18.23;;
68765;SDS011;55756;45.582;11.484;2022-11-15T05:11:05;23.67;;;17.73;;
68765;SDS011;55756;45.582;11.484;2022-11-15T05:13:49;97.90;;;17.75;;
68765;SDS011;55756;45.582;11.484;2022-11-15T05:16:34;72.20;;;18.25;;
68765;SDS011;55756;45.582;11.484;2022-11-15T05:19:19;43.92;;;20.88;;
68765;SDS011;55756;45.582;11.484;2022-11-15T05:22:04;59.05;;;22.77;;
68765;SDS011;55756;45.582;11.484;2022-11-15T05:24:48;180.07;;;23.85;;
68765;SDS011;55756;45.582;11.484;2022-11-15T05:27:33;174.85;;;25.50;;
68765;SDS011;55756;45.582;11.484;2022-11-15T05:30:18;251.88;;;27.00;;
68765;SDS011;55756;45.582;11.484;2022-11-15T05:33:02;99.43;;;25.83;;
68765;SDS011;55756;45.582;11.484;2022-11-15T05:35:48;203.93;;;25.73;;
68765;SDS011;55756;45.582;11.484;2022-11-15T05:38:38;69.20;;;25.90;;
68765;SDS011;55756;45.582;11.484;2022-11-15T05:41:42;148.43;;;28.88;;
68765;SDS011;55756;45.582;11.484;2022-11-15T05:44:32;137.02;;;29.02;;
68765;SDS011;55756;45.582;11.484;2022-11-15T05:47:20;96.47;;;26.17;;
68765;SDS011;55756;45.582;11.484;2022-11-15T05:50:07;152.32;;;24.30;;
68765;SDS011;55756;45.582;11.484;2022-11-15T05:55:40;89.30;;;22.50;;
68765;SDS011;55756;45.582;11.484;2022-11-15T05:58:25;34.58;;;21.58;;
68765;SDS011;55756;45.582;11.484;2022-11-15T06:01:09;77.65;;;21.92;;
68765;SDS011;55756;45.582;11.484;2022-11-15T06:03:54;59.83;;;20.45;;
68765;SDS011;55756;45.582;11.484;2022-11-15T06:06:38;166.25;;;22.02;;
68765;SDS011;55756;45.582;11.484;2022-11-15T06:09:22;104.75;;;21.13;;
68765;SDS011;55756;45.582;11.484;2022-11-15T06:12:06;166.82;;;20.85;;
68765;SDS011;55756;45.582;11.484;2022-11-15T06:14:50;42.50;;;21.88;;
68765;SDS011;55756;45.582;11.484;2022-11-15T06:17:35;100.78;;;21.75;;
68765;SDS011;55756;45.582;11.484;2022-11-15T06:20:19;63.92;;;21.88;;
68765;SDS011;55756;45.582;11.484;2022-11-15T06:23:04;53.28;;;21.85;;
68765;SDS011;55756;45.582;11.484;2022-11-15T06:25:48;36.67;;;22.25;;
68765;SDS011;55756;45.582;11.484;2022-11-15T06:28:33;55.83;;;23.10;;
68765;SDS011;55756;45.582;11.484;2022-11-15T06:31:17;62.13;;;22.95;;
68765;SDS011;55756;45.582;11.484;2022-11-15T06:34:02;41.88;;;23.38;;
68765;SDS011;55756;45.582;11.484;2022-11-15T06:36:46;41.20;;;22.02;;
68765;SDS011;55756;45.582;11.484;2022-11-15T06:39:30;72.75;;;22.27;;
68765;SDS011;55756;45.582;11.484;2022-11-15T06:42:14;76.80;;;21.60;;
68765;SDS011;55756;45.582;11.484;2022-11-15T06:44:59;35.17;;;20.42;;
68765;SDS011;55756;45.582;11.484;2022-11-15T06:47:44;43.90;;;19.63;;
68765;SDS011;55756;45.582;11.484;2022-11-15T06:50:30;52.15;;;19.55;;
68765;SDS011;55756;45.582;11.484;2022-11-15T06:53:14;41.90;;;19.48;;
68765;SDS011;55756;45.582;11.484;2022-11-15T06:56:02;27.08;;;18.20;;
68765;SDS011;55756;45.582;11.484;2022-11-15T06:58:48;61.22;;;18.30;;
68765;SDS011;55756;45.582;11.484;2022-11-15T07:01:33;35.42;;;18.63;;
68765;SDS011;55756;45.582;11.484;2022-11-15T07:04:17;61.28;;;17.55;;
68765;SDS011;55756;45.582;11.484;2022-11-15T07:07:01;23.23;;;16.05;;
68765;SDS011;55756;45.582;11.484;2022-11-15T07:09:46;55.38;;;16.75;;
68765;SDS011;55756;45.582;11.484;2022-11-15T07:12:30;41.53;;;17.00;;
68765;SDS011;55756;45.582;11.484;2022-11-15T07:15:16;64.47;;;18.08;;
68765;SDS011;55756;45.582;11.484;2022-11-15T07:18:01;89.10;;;18.95;;
68765;SDS011;55756;45.582;11.484;2022-11-15T07:20:45;34.20;;;17.52;;
68765;SDS011;55756;45.582;11.484;2022-11-15T07:23:31;23.33;;;15.80;;
68765;SDS011;55756;45.582;11.484;2022-11-15T07:26:15;33.08;;;18.10;;
68765;SDS011;55756;45.582;11.484;2022-11-15T07:29:00;31.23;;;16.45;;
68765;SDS011;55756;45.582;11.484;2022-11-15T07:31:44;21.83;;;14.70;;
68765;SDS011;55756;45.582;11.484;2022-11-15T07:34:28;17.15;;;12.30;;
68765;SDS011;55756;45.582;11.484;2022-11-15T07:37:12;16.05;;;12.80;;
68765;SDS011;55756;45.582;11.484;2022-11-15T07:39:57;30.25;;;13.75;;
68765;SDS011;55756;45.582;11.484;2022-11-15T07:42:41;20.58;;;15.00;;
68765;SDS011;55756;45.582;11.484;2022-11-15T07:45:44;22.70;;;16.20;;
68765;SDS011;55756;45.582;11.484;2022-11-15T07:48:30;26.85;;;19.60;;
68765;SDS011;55756;45.582;11.484;2022-11-15T07:51:15;27.45;;;18.33;;
68765;SDS011;55756;45.582;11.484;2022-11-15T07:54:00;21.67;;;15.93;;
68765;SDS011;55756;45.582;11.484;2022-11-15T07:56:44;27.00;;;16.55;;
68765;SDS011;55756;45.582;11.484;2022-11-15T07:59:28;26.98;;;19.55;;
68765;SDS011;55756;45.582;11.484;2022-11-15T08:02:13;24.55;;;17.95;;
68765;SDS011;55756;45.582;11.484;2022-11-15T08:05:00;50.53;;;19.48;;
68765;SDS011;55756;45.582;11.484;2022-11-15T08:07:44;29.92;;;20.27;;
68765;SDS011;55756;45.582;11.484;2022-11-15T08:10:28;30.33;;;20.27;;
68765;SDS011;55756;45.582;11.484;2022-11-15T08:13:14;33.22;;;20.45;;
68765;SDS011;55756;45.582;11.484;2022-11-15T08:15:59;24.85;;;17.23;;
68765;SDS011;55756;45.582;11.484;2022-11-15T08:18:45;27.67;;;16.90;;
68765;SDS011;55756;45.582;11.484;2022-11-15T08:21:30;24.40;;;16.95;;
68765;SDS011;55756;45.582;11.484;2022-11-15T08:24:14;29.80;;;20.25;;
68765;SDS011;55756;45.582;11.484;2022-11-15T08:26:59;30.20;;;20.38;;
68765;SDS011;55756;45.582;11.484;2022-11-15T08:29:44;26.70;;;18.90;;
68765;SDS011;55756;45.582;11.484;2022-11-15T08:32:30;27.50;;;18.08;;
68765;SDS011;55756;45.582;11.484;2022-11-15T08:35:15;26.20;;;18.30;;
68765;SDS011;55756;45.582;11.484;2022-11-15T08:37:59;25.67;;;18.05;;
68765;SDS011;55756;45.582;11.484;2022-11-15T08:40:44;29.70;;;18.63;;
68765;SDS011;55756;45.582;11.484;2022-11-15T08:43:29;27.88;;;18.50;;
68765;SDS011;55756;45.582;11.484;2022-11-15T08:46:13;30.20;;;21.05;;
68765;SDS011;55756;45.582;11.484;2022-11-15T08:48:58;28.25;;;19.95;;
68765;SDS011;55756;45.582;11.484;2022-11-15T08:51:42;28.85;;;19.63;;
68765;SDS011;55756;45.582;11.484;2022-11-15T08:54:27;27.08;;;20.20;;
68765;SDS011;55756;45.582;11.484;2022-11-15T08:57:11;30.08;;;20.85;;
68765;SDS011;55756;45.582;11.484;2022-11-15T08:59:56;31.00;;;20.85;;
68765;SDS011;55756;45.582;11.484;2022-11-15T09:02:41;29.83;;;21.27;;
68765;SDS011;55756;45.582;11.484;2022-11-15T09:05:25;31.02;;;21.00;;
68765;SDS011;55756;45.582;11.484;2022-11-15T09:08:10;30.67;;;20.85;;
68765;SDS011;55756;45.582;11.484;2022-11-15T09:10:55;29.15;;;20.63;;
68765;SDS011;55756;45.582;11.484;2022-11-15T09:13:39;26.92;;;19.77;;
68765;SDS011;55756;45.582;11.484;2022-11-15T09:16:24;29.90;;;21.10;;
68765;SDS011;55756;45.582;11.484;2022-11-15T09:19:08;28.20;;;20.90;;
68765;SDS011;55756;45.582;11.484;2022-11-15T09:21:53;27.60;;;20.42;;
68765;SDS011;55756;45.582;11.484;2022-11-15T09:24:38;28.77;;;19.92;;
68765;SDS011;55756;45.582;11.484;2022-11-15T09:27:22;28.48;;;19.48;;
68765;SDS011;55756;45.582;11.484;2022-11-15T09:30:10;29.38;;;19.17;;
68765;SDS011;55756;45.582;11.484;2022-11-15T09:32:55;25.92;;;18.27;;
68765;SDS011;55756;45.582;11.484;2022-11-15T09:35:39;25.33;;;17.95;;
68765;SDS011;55756;45.582;11.484;2022-11-15T09:38:24;25.42;;;18.35;;
68765;SDS011;55756;45.582;11.484;2022-11-15T09:50:17;25.23;;;18.65;;
68765;SDS011;55756;45.582;11.484;2022-11-15T10:00:55;24.63;;;16.60;;
68765;SDS011;55756;45.582;11.484;2022-11-15T10:03:34;26.15;;;17.20;;
68765;SDS011;55756;45.582;11.484;2022-11-15T10:06:04;22.50;;;15.07;;
68765;SDS011;55756;45.582;11.484;2022-11-15T10:13:31;22.65;;;15.15;;
68765;SDS011;55756;45.582;11.484;2022-11-15T10:24:27;20.17;;;13.77;;
68765;SDS011;55756;45.582;11.484;2022-11-15T10:26:57;23.00;;;15.02;;
68765;SDS011;55756;45.582;11.484;2022-11-15T10:29:23;24.45;;;15.70;;
68765;SDS011;55756;45.582;11.484;2022-11-15T10:31:50;24.63;;;15.57;;
68765;SDS011;55756;45.582;11.484;2022-11-15T10:34:17;23.08;;;15.80;;
68765;SDS011;55756;45.582;11.484;2022-11-15T10:36:57;23.38;;;16.00;;
68765;SDS011;55756;45.582;11.484;2022-11-15T10:39:25;29.08;;;16.30;;
68765;SDS011;55756;45.582;11.484;2022-11-15T10:41:52;29.48;;;17.17;;
68765;SDS011;55756;45.582;11.484;2022-11-15T10:46:45;31.38;;;17.85;;
68765;SDS011;55756;45.582;11.484;2022-11-15T10:49:32;28.92;;;16.70;;
68765;SDS011;55756;45.582;11.484;2022-11-15T10:52:00;23.30;;;15.70;;
68765;SDS011;55756;45.582;11.484;2022-11-15T10:57:16;22.75;;;15.85;;
68765;SDS011;55756;45.582;11.484;2022-11-15T10:59:52;23.48;;;15.82;;
68765;SDS011;55756;45.582;11.484;2022-11-15T11:05:04;24.38;;;18.45;;
68765;SDS011;55756;45.582;11.484;2022-11-15T11:07:55;21.20;;;16.05;;
68765;SDS011;55756;45.582;11.484;2022-11-15T11:10:29;24.00;;;16.05;;
68765;SDS011;55756;45.582;11.484;2022-11-15T11:12:55;26.58;;;15.55;;
68765;SDS011;55756;45.582;11.484;2022-11-15T11:15:22;28.25;;;16.73;;
68765;SDS011;55756;45.582;11.484;2022-11-15T11:18:08;24.90;;;16.45;;
68765;SDS011;55756;45.582;11.484;2022-11-15T11:20:43;28.35;;;16.85;;
68765;SDS011;55756;45.582;11.484;2022-11-15T11:34:12;27.48;;;18.55;;
68765;SDS011;55756;45.582;11.484;2022-11-15T11:36:58;29.73;;;19.38;;
68765;SDS011;55756;45.582;11.484;2022-11-15T11:39:48;32.30;;;19.58;;
68765;SDS011;55756;45.582;11.484;2022-11-15T11:45:18;33.28;;;18.75;;
68765;SDS011;55756;45.582;11.484;2022-11-15T11:50:32;36.80;;;21.90;;
68765;SDS011;55756;45.582;11.484;2022-11-15T11:53:12;34.35;;;22.02;;
68765;SDS011;55756;45.582;11.484;2022-11-15T11:59:19;35.65;;;22.02;;
68765;SDS011;55756;45.582;11.484;2022-11-15T12:01:50;35.85;;;22.40;;
68765;SDS011;55756;45.582;11.484;2022-11-15T12:04:34;37.42;;;22.83;;
68765;SDS011;55756;45.582;11.484;2022-11-15T12:07:17;35.40;;;22.35;;
68765;SDS011;55756;45.582;11.484;2022-11-15T12:09:53;36.33;;;22.95;;
68765;SDS011;55756;45.582;11.484;2022-11-15T12:14:56;37.20;;;21.67;;
68765;SDS011;55756;45.582;11.484;2022-11-15T12:17:30;35.90;;;22.63;;
68765;SDS011;55756;45.582;11.484;2022-11-15T12:20:01;34.80;;;22.45;;
68765;SDS011;55756;45.582;11.484;2022-11-15T12:25:20;39.03;;;24.05;;
68765;SDS011;55756;45.582;11.484;2022-11-15T12:27:57;42.00;;;24.23;;
68765;SDS011;55756;45.582;11.484;2022-11-15T12:30:36;38.85;;;23.92;;
68765;SDS011;55756;45.582;11.484;2022-11-15T12:33:34;43.67;;;26.30;;
68765;SDS011;55756;45.582;11.484;2022-11-15T12:36:08;45.45;;;27.05;;
68765;SDS011;55756;45.582;11.484;2022-11-15T12:41:26;47.03;;;27.90;;
68765;SDS011;55756;45.582;11.484;2022-11-15T12:43:53;44.03;;;27.60;;
68765;SDS011;55756;45.582;11.484;2022-11-15T12:52:07;47.30;;;28.83;;
68765;SDS011;55756;45.582;11.484;2022-11-15T13:02:33;51.53;;;30.65;;
68765;SDS011;55756;45.582;11.484;2022-11-15T13:12:58;50.60;;;28.98;;
68765;SDS011;55756;45.582;11.484;2022-11-15T13:20:53;49.78;;;29.65;;
68765;SDS011;55756;45.582;11.484;2022-11-15T13:23:19;52.50;;;30.08;;
68765;SDS011;55756;45.582;11.484;2022-11-15T13:33:54;54.08;;;31.95;;
68765;SDS011;55756;45.582;11.484;2022-11-15T13:36:41;56.35;;;31.73;;
68765;SDS011;55756;45.582;11.484;2022-11-15T13:41:52;61.17;;;33.13;;
68765;SDS011;55756;45.582;11.484;2022-11-15T13:44:20;58.72;;;32.55;;
68765;SDS011;55756;45.582;11.484;2022-11-15T13:47:36;59.78;;;32.10;;
68765;SDS011;55756;45.582;11.484;2022-11-15T13:49:40;56.72;;;31.40;;
68765;SDS011;55756;45.582;11.484;2022-11-15T13:52:07;54.78;;;31.38;;
68765;SDS011;55756;45.582;11.484;2022-11-15T13:54:55;58.75;;;30.90;;
68765;SDS011;55756;45.582;11.484;2022-11-15T13:57:50;53.42;;;31.33;;
68765;SDS011;55756;45.582;11.484;2022-11-15T14:03:21;54.67;;;30.27;;
68765;SDS011;55756;45.582;11.484;2022-11-15T14:08:29;51.30;;;29.77;;
68765;SDS011;55756;45.582;11.484;2022-11-15T14:16:37;54.33;;;29.23;;
68765;SDS011;55756;45.582;11.484;2022-11-15T14:19:04;54.92;;;30.75;;
68765;SDS011;55756;45.582;11.484;2022-11-15T14:21:31;54.47;;;30.10;;
68765;SDS011;55756;45.582;11.484;2022-11-15T14:26:43;54.50;;;31.67;;
68765;SDS011;55756;45.582;11.484;2022-11-15T14:29:22;62.20;;;34.50;;
68765;SDS011;55756;45.582;11.484;2022-11-15T14:31:51;79.53;;;46.75;;
68765;SDS011;55756;45.582;11.484;2022-11-15T14:34:18;87.88;;;49.80;;
68765;SDS011;55756;45.582;11.484;2022-11-15T14:36:46;72.03;;;40.97;;
68765;SDS011;55756;45.582;11.484;2022-11-15T14:39:13;61.63;;;36.70;;
68765;SDS011;55756;45.582;11.484;2022-11-15T14:41:39;57.28;;;32.75;;
68765;SDS011;55756;45.582;11.484;2022-11-15T14:44:05;60.83;;;31.63;;
68765;SDS011;55756;45.582;11.484;2022-11-15T14:46:31;56.85;;;30.92;;
68765;SDS011;55756;45.582;11.484;2022-11-15T14:48:57;52.58;;;30.30;;
68765;SDS011;55756;45.582;11.484;2022-11-15T14:51:23;55.88;;;31.95;;
68765;SDS011;55756;45.582;11.484;2022-11-15T14:53:49;69.97;;;39.50;;
68765;SDS011;55756;45.582;11.484;2022-11-15T14:56:16;71.75;;;39.88;;
68765;SDS011;55756;45.582;11.484;2022-11-15T14:58:43;64.03;;;37.80;;
68765;SDS011;55756;45.582;11.484;2022-11-15T15:01:14;66.05;;;35.05;;
68765;SDS011;55756;45.582;11.484;2022-11-15T15:03:46;64.53;;;35.22;;
68765;SDS011;55756;45.582;11.484;2022-11-15T15:06:12;57.72;;;33.47;;
68765;SDS011;55756;45.582;11.484;2022-11-15T15:08:39;51.90;;;30.65;;
68765;SDS011;55756;45.582;11.484;2022-11-15T15:14:00;55.00;;;30.75;;
68765;SDS011;55756;45.582;11.484;2022-11-15T15:16:26;51.63;;;29.33;;
68765;SDS011;55756;45.582;11.484;2022-11-15T15:18:53;48.20;;;27.98;;
68765;SDS011;55756;45.582;11.484;2022-11-15T15:21:25;52.75;;;29.13;;
68765;SDS011;55756;45.582;11.484;2022-11-15T15:23:52;48.67;;;28.58;;
68765;SDS011;55756;45.582;11.484;2022-11-15T15:26:19;45.42;;;27.58;;
68765;SDS011;55756;45.582;11.484;2022-11-15T15:28:46;45.78;;;28.13;;
68765;SDS011;55756;45.582;11.484;2022-11-15T15:31:13;49.08;;;29.50;;
68765;SDS011;55756;45.582;11.484;2022-11-15T15:33:39;44.50;;;28.33;;
68765;SDS011;55756;45.582;11.484;2022-11-15T15:36:09;48.53;;;28.17;;
68765;SDS011;55756;45.582;11.484;2022-11-15T15:38:37;50.70;;;31.63;;
68765;SDS011;55756;45.582;11.484;2022-11-15T15:41:08;68.03;;;39.20;;
68765;SDS011;55756;45.582;11.484;2022-11-15T15:43:35;68.07;;;44.00;;
68765;SDS011;55756;45.582;11.484;2022-11-15T15:46:01;61.92;;;36.88;;
68765;SDS011;55756;45.582;11.484;2022-11-15T15:48:27;56.30;;;33.72;;
68765;SDS011;55756;45.582;11.484;2022-11-15T15:50:52;47.40;;;29.88;;
68765;SDS011;55756;45.582;11.484;2022-11-15T15:53:18;47.90;;;28.42;;
68765;SDS011;55756;45.582;11.484;2022-11-15T15:55:44;48.67;;;28.17;;
68765;SDS011;55756;45.582;11.484;2022-11-15T15:58:10;47.25;;;30.00;;
68765;SDS011;55756;45.582;11.484;2022-11-15T16:00:36;48.95;;;30.40;;
68765;SDS011;55756;45.582;11.484;2022-11-15T16:03:02;46.53;;;27.92;;
68765;SDS011;55756;45.582;11.484;2022-11-15T16:05:28;47.85;;;28.55;;
68765;SDS011;55756;45.582;11.484;2022-11-15T16:07:54;47.83;;;27.42;;
68765;SDS011;55756;45.582;11.484;2022-11-15T16:10:24;50.25;;;27.83;;
68765;SDS011;55756;45.582;11.484;2022-11-15T16:12:50;48.13;;;28.73;;
68765;SDS011;55756;45.582;11.484;2022-11-15T16:15:17;50.28;;;28.98;;
68765;SDS011;55756;45.582;11.484;2022-11-15T16:17:45;50.03;;;30.00;;
68765;SDS011;55756;45.582;11.484;2022-11-15T16:21:00;47.08;;;30.52;;
68765;SDS011;55756;45.582;11.484;2022-11-15T16:23:11;47.72;;;28.55;;
68765;SDS011;55756;45.582;11.484;2022-11-15T16:25:41;49.22;;;29.30;;
68765;SDS011;55756;45.582;11.484;2022-11-15T16:28:15;49.25;;;29.60;;
68765;SDS011;55756;45.582;11.484;2022-11-15T16:30:42;50.53;;;30.17;;
68765;SDS011;55756;45.582;11.484;2022-11-15T16:33:07;47.03;;;28.55;;
68765;SDS011;55756;45.582;11.484;2022-11-15T16:35:33;45.50;;;28.15;;
68765;SDS011;55756;45.582;11.484;2022-11-15T16:37:59;48.05;;;28.75;;
68765;SDS011;55756;45.582;11.484;2022-11-15T16:42:52;50.65;;;30.13;;
68765;SDS011;55756;45.582;11.484;2022-11-15T16:45:21;53.92;;;32.92;;
68765;SDS011;55756;45.582;11.484;2022-11-15T16:47:47;44.65;;;27.75;;
68765;SDS011;55756;45.582;11.484;2022-11-15T16:50:20;55.90;;;29.67;;
68765;SDS011;55756;45.582;11.484;2022-11-15T16:52:50;48.28;;;28.60;;
68765;SDS011;55756;45.582;11.484;2022-11-15T16:55:21;53.08;;;28.92;;
68765;SDS011;55756;45.582;11.484;2022-11-15T16:57:49;51.88;;;29.83;;
68765;SDS011;55756;45.582;11.484;2022-11-15T17:00:15;52.85;;;29.67;;
68765;SDS011;55756;45.582;11.484;2022-11-15T17:02:43;50.17;;;29.83;;
68765;SDS011;55756;45.582;11.484;2022-11-15T17:05:09;48.97;;;30.23;;
68765;SDS011;55756;45.582;11.484;2022-11-15T17:07:35;46.75;;;28.95;;
68765;SDS011;55756;45.582;11.484;2022-11-15T17:10:01;50.47;;;28.90;;
68765;SDS011;55756;45.582;11.484;2022-11-15T17:12:27;50.90;;;29.75;;
68765;SDS011;55756;45.582;11.484;2022-11-15T17:14:55;52.70;;;30.42;;
68765;SDS011;55756;45.582;11.484;2022-11-15T17:17:21;52.55;;;31.60;;
68765;SDS011;55756;45.582;11.484;2022-11-15T17:19:47;53.90;;;31.70;;
68765;SDS011;55756;45.582;11.484;2022-11-15T17:22:13;53.40;;;32.22;;
68765;SDS011;55756;45.582;11.484;2022-11-15T17:24:39;56.10;;;33.35;;
68765;SDS011;55756;45.582;11.484;2022-11-15T17:27:04;56.45;;;34.08;;
68765;SDS011;55756;45.582;11.484;2022-11-15T17:29:30;56.47;;;33.83;;
68765;SDS011;55756;45.582;11.484;2022-11-15T17:31:56;60.50;;;35.78;;
68765;SDS011;55756;45.582;11.484;2022-11-15T17:34:22;59.40;;;34.80;;
68765;SDS011;55756;45.582;11.484;2022-11-15T17:36:48;57.05;;;34.97;;
68765;SDS011;55756;45.582;11.484;2022-11-15T17:39:13;54.47;;;35.35;;
68765;SDS011;55756;45.582;11.484;2022-11-15T17:41:39;59.38;;;36.85;;
68765;SDS011;55756;45.582;11.484;2022-11-15T17:44:05;60.50;;;36.22;;
68765;SDS011;55756;45.582;11.484;2022-11-15T17:46:31;57.67;;;36.10;;